Lucas, KS (67648)

5:06 AM CDT on October 24, 2014 (GMT -0500)
Craven / Shiroky Farm | Change Station
CLOSE
Current Station
Personal Weather Station
Location: Luray, KS
Elevation: 1730 ft
Nearby Weather Stations

Elev 1730 ft 39.02 °N, 98.67 °W | Updated 16 seconds ago

Clear
Clear
60.5 °F
Feels Like 60.5 °F
N
7.0
Wind Variable Wind from SW
Gusts 11.0 mph

Today
High -- | Low -- °F
--% Chance of Precip.
Yesterday
High -- | Low -- °F
Precip. -- in
7:53 AM 6:43 PM
New Moon, 0% visible
Pressure 29.97 in
Visibility 6.0 miles
Clouds Clear
Dew Point 50 °F
Humidity 67%
Rainfall 0.00 in
Snow Depth Not available.
UV 0 out of 12
Pollen 1.20 out of 12
Air Quality Not available.
Flu Activity No Activity
METAR KRSL 240953Z AUTO 19011KT 6SM BR CLR 15/14 A3000 RMK AO2 SLP148 T01500139

More Conditions Fewer Conditions

Pressure 29.97 in
Visibility 6.0 miles
Clouds Clear
Dew Point 50 °F
Humidity 67%
Rainfall 0.00 in
Snow Depth Not available.
UV 0 out of 12
Pollen 1.20 out of 12
Air Quality Not available.
Flu Activity No Activity
METAR KRSL 240953Z AUTO 19011KT 6SM BR CLR 15/14 A3000 RMK AO2 SLP148 T01500139

More Conditions Fewer Conditions

10-Day Weather Forecast

Almanac

Astronomy

Oct. 24, 2014 Rise Set
Actual Time 7:53 AM CDT 6:43 PM CDT
Civil Twilight 7:25 AM CDT 7:10 PM CDT
Nautical Twilight 6:54 AM CDT 7:41 PM CDT
Astronomical Twilight 6:23 AM CDT 8:12 PM CDT
Moon 8:33 AM CDT 7:24 PM CDT
Length of Visible Light 11h 44m
Length of Day
10h 50m
Tomorrow will be 2m 22s shorter.
New Moon, 0% of the Moon is Illuminated
Today
New Moon
Oct 30
First Quarter
Nov 6
Full
Nov 14
Last Quarter
Nov 22
New

Today's Extremes

State Highs State Lows

Community

WunderPhotos

Upload Photos

1,764,513 photos uploaded!

WunderBlogs® & News

Nearby

Snow Depth

Station Depth Elevation
No new snow has been reported.

Earthquake Activity

City Distance Mag. Time & Date
No recent earthquake activity has been reported nearby.
Minimum magnitude displayed is 2.5.

Coastal Water Temperatures

Place Temperature
No Stations Reporting

Nearby Weather Stations